Time,TemperatureF,DewpointF,PressureIn,WindDirection,WindDirectionDegrees,WindSpeedMPH,WindSpeedGustMPH,Humidity,HourlyPrecipIn,Conditions,Clouds,dailyrainin,SolarRadiationWatts/m^2,SoftwareType,DateUTC
2013-04-04 00:23:00,70.0,58.0,30.08,NE,54,10.0,17.0,66,0.00,,,0.00,0.000000,,2013-04-04 10:23:00,
2013-04-04 00:33:00,70.0,58.0,30.08,NE,54,10.0,17.0,66,0.00,,,0.00,0.000000,,2013-04-04 10:33:00,
2013-04-04 00:42:00,70.0,58.0,30.08,NE,54,10.0,17.0,66,0.00,,,0.00,0.000000,,2013-04-04 10:42:00,
2013-04-04 01:22:00,70.0,58.0,30.06,NE,55,10.0,20.0,65,0.00,,,0.00,0.000000,,2013-04-04 11:22:00,
2013-04-04 01:32:00,70.0,58.0,30.06,NE,55,10.0,20.0,65,0.00,,,0.00,0.000000,,2013-04-04 11:32:00,
2013-04-04 01:42:00,70.0,58.0,30.06,NE,55,10.0,20.0,65,0.00,,,0.00,0.000000,,2013-04-04 11:42:00,
2013-04-04 01:52:00,70.0,58.0,30.06,NE,55,10.0,20.0,65,0.00,,,0.00,0.000000,,2013-04-04 11:52:00,
2013-04-04 02:22:00,68.0,57.0,30.06,North,358,4.0,17.0,68,0.00,,,0.00,0.000000,,2013-04-04 12:22:00,
2013-04-04 02:32:00,68.0,57.0,30.06,North,358,4.0,17.0,68,0.00,,,0.00,0.000000,,2013-04-04 12:32:00,
2013-04-04 02:42:00,68.0,57.0,30.06,North,358,4.0,17.0,68,0.00,,,0.00,0.000000,,2013-04-04 12:42:00,
2013-04-04 02:52:00,68.0,57.0,30.06,North,358,4.0,17.0,68,0.00,,,0.00,0.000000,,2013-04-04 12:52:00,
2013-04-04 03:12:00,67.0,57.0,30.03,North,349,3.0,7.0,70,0.00,,,0.00,0.000000,,2013-04-04 13:12:00,
2013-04-04 03:22:00,67.0,57.0,30.03,North,349,3.0,7.0,70,0.00,,,0.00,0.000000,,2013-04-04 13:22:00,
2013-04-04 03:32:00,67.0,57.0,30.03,North,349,3.0,7.0,70,0.00,,,0.00,0.000000,,2013-04-04 13:32:00,
2013-04-04 03:42:00,67.0,57.0,30.03,North,349,3.0,7.0,70,0.00,,,0.00,0.000000,,2013-04-04 13:42:00,
2013-04-04 03:52:00,67.0,57.0,30.03,North,349,3.0,7.0,70,0.00,,,0.00,0.000000,,2013-04-04 13:52:00,
2013-04-04 04:12:00,68.0,58.0,30.03,NE,40,8.0,15.0,71,0.00,,,0.00,0.000000,,2013-04-04 14:12:00,
2013-04-04 04:22:00,68.0,58.0,30.03,NE,40,8.0,15.0,71,0.00,,,0.00,0.000000,,2013-04-04 14:22:00,
2013-04-04 04:32:00,68.0,58.0,30.03,NE,40,8.0,15.0,71,0.00,,,0.00,0.000000,,2013-04-04 14:32:00,
2013-04-04 04:42:00,68.0,58.0,30.03,NE,40,8.0,15.0,71,0.00,,,0.00,0.000000,,2013-04-04 14:42:00,
2013-04-04 04:52:00,68.0,58.0,30.03,NE,40,8.0,15.0,71,0.00,,,0.00,0.000000,,2013-04-04 14:52:00,
2013-04-04 04:53:00,68.0,58.0,30.04,ENE,76,4.0,12.0,71,0.00,,,0.00,0.000000,,2013-04-04 14:53:00,
2013-04-04 05:12:00,68.0,58.0,30.04,ENE,76,4.0,12.0,71,0.00,,,0.00,0.000000,,2013-04-04 15:12:00,
2013-04-04 05:22:00,68.0,58.0,30.04,ENE,76,4.0,12.0,71,0.00,,,0.00,0.000000,,2013-04-04 15:22:00,
2013-04-04 05:33:00,68.0,58.0,30.04,ENE,76,4.0,12.0,71,0.00,,,0.00,0.000000,,2013-04-04 15:33:00,
2013-04-04 05:42:00,68.0,58.0,30.04,ENE,76,4.0,12.0,71,0.00,,,0.00,0.000000,,2013-04-04 15:42:00,
2013-04-04 06:12:00,67.0,56.0,30.06,NW,317,3.0,15.0,69,0.00,,,0.00,0.000000,,2013-04-04 16:12:00,
2013-04-04 06:23:00,67.0,56.0,30.06,NW,317,3.0,15.0,69,0.00,,,0.00,0.000000,,2013-04-04 16:23:00,
2013-04-04 06:32:00,67.0,56.0,30.06,NW,317,3.0,15.0,69,0.00,,,0.00,0.000000,,2013-04-04 16:32:00,
2013-04-04 06:42:00,67.0,56.0,30.06,NW,317,3.0,15.0,69,0.00,,,0.00,0.000000,,2013-04-04 16:42:00,
2013-04-04 06:52:00,67.0,56.0,30.06,NW,317,3.0,15.0,69,0.00,,,0.00,0.000000,,2013-04-04 16:52:00,
2013-04-04 07:13:00,69.0,59.0,30.07,NE,50,8.0,14.0,70,0.00,,,0.00,21.000000,,2013-04-04 17:13:00,
2013-04-04 07:22:00,69.0,59.0,30.07,NE,50,8.0,14.0,70,0.00,,,0.00,21.000000,,2013-04-04 17:22:00,
2013-04-04 07:33:00,69.0,59.0,30.07,NE,50,8.0,14.0,70,0.00,,,0.00,21.000000,,2013-04-04 17:33:00,
2013-04-04 07:42:00,69.0,59.0,30.07,NE,50,8.0,14.0,70,0.00,,,0.00,21.000000,,2013-04-04 17:42:00,
2013-04-04 07:52:00,69.0,59.0,30.07,NE,50,8.0,14.0,70,0.00,,,0.00,21.000000,,2013-04-04 17:52:00,
2013-04-04 08:12:00,75.0,62.0,30.09,ENE,61,10.0,17.0,63,0.00,,,0.00,217.000000,,2013-04-04 18:12:00,
2013-04-04 08:22:00,75.0,62.0,30.09,ENE,61,10.0,17.0,63,0.00,,,0.00,217.000000,,2013-04-04 18:22:00,
2013-04-04 08:32:00,75.0,62.0,30.09,ENE,61,10.0,17.0,63,0.00,,,0.00,217.000000,,2013-04-04 18:32:00,
2013-04-04 08:42:00,75.0,62.0,30.09,ENE,61,10.0,17.0,63,0.00,,,0.00,217.000000,,2013-04-04 18:42:00,
2013-04-04 08:52:00,75.0,62.0,30.09,ENE,61,10.0,17.0,63,0.00,,,0.00,217.000000,,2013-04-04 18:52:00,
2013-04-04 09:22:00,76.0,60.0,30.11,ENE,71,13.0,21.0,58,0.00,,,0.00,509.000000,,2013-04-04 19:22:00,
2013-04-04 09:32:00,76.0,60.0,30.11,ENE,71,13.0,21.0,58,0.00,,,0.00,509.000000,,2013-04-04 19:32:00,
2013-04-04 09:42:00,76.0,60.0,30.11,ENE,71,13.0,21.0,58,0.00,,,0.00,509.000000,,2013-04-04 19:42:00,
2013-04-04 09:52:00,76.0,60.0,30.11,ENE,71,13.0,21.0,58,0.00,,,0.00,509.000000,,2013-04-04 19:52:00,
2013-04-04 10:12:00,79.0,63.0,30.10,East,82,15.0,23.0,58,0.00,,,0.00,768.000000,,2013-04-04 20:12:00,
2013-04-04 10:22:00,79.0,63.0,30.10,East,82,15.0,23.0,58,0.00,,,0.00,768.000000,,2013-04-04 20:22:00,
2013-04-04 10:32:00,79.0,63.0,30.10,East,82,15.0,23.0,58,0.00,,,0.00,768.000000,,2013-04-04 20:32:00,
2013-04-04 10:42:00,79.0,63.0,30.10,East,82,15.0,23.0,58,0.00,,,0.00,768.000000,,2013-04-04 20:42:00,
2013-04-04 10:52:00,79.0,63.0,30.10,East,82,15.0,23.0,58,0.00,,,0.00,768.000000,,2013-04-04 20:52:00,
2013-04-04 11:12:00,79.0,64.0,30.09,ENE,71,17.0,25.0,60,0.00,,,0.00,1021.000000,,2013-04-04 21:12:00,
2013-04-04 11:22:00,79.0,64.0,30.09,ENE,71,17.0,25.0,60,0.00,,,0.00,1021.000000,,2013-04-04 21:22:00,
2013-04-04 11:32:00,79.0,64.0,30.09,ENE,71,17.0,25.0,60,0.00,,,0.00,1021.000000,,2013-04-04 21:32:00,
2013-04-04 11:42:00,79.0,64.0,30.09,ENE,71,17.0,25.0,60,0.00,,,0.00,1021.000000,,2013-04-04 21:42:00,
2013-04-04 11:52:00,79.0,64.0,30.09,ENE,71,17.0,25.0,60,0.00,,,0.00,1021.000000,,2013-04-04 21:52:00,
2013-04-04 12:12:00,81.0,62.0,30.08,ENE,77,17.0,27.0,53,0.00,,,0.00,1177.000000,,2013-04-04 22:12:00,
2013-04-04 12:22:00,81.0,62.0,30.08,ENE,77,17.0,27.0,53,0.00,,,0.00,1177.000000,,2013-04-04 22:22:00,
2013-04-04 12:33:00,81.0,62.0,30.08,ENE,77,17.0,27.0,53,0.00,,,0.00,1177.000000,,2013-04-04 22:33:00,
2013-04-04 12:42:00,81.0,62.0,30.08,ENE,77,17.0,27.0,53,0.00,,,0.00,1177.000000,,2013-04-04 22:42:00,
2013-04-04 12:52:00,81.0,62.0,30.08,ENE,77,17.0,27.0,53,0.00,,,0.00,1177.000000,,2013-04-04 22:52:00,
2013-04-04 13:12:00,79.0,62.0,30.05,ENE,71,17.0,28.0,56,0.00,,,0.00,1201.000000,,2013-04-04 23:12:00,
2013-04-04 13:22:00,79.0,62.0,30.05,ENE,71,17.0,28.0,56,0.00,,,0.00,1201.000000,,2013-04-04 23:22:00,
2013-04-04 13:32:00,79.0,62.0,30.05,ENE,71,17.0,28.0,56,0.00,,,0.00,1201.000000,,2013-04-04 23:32:00,
2013-04-04 13:42:00,79.0,62.0,30.05,ENE,71,17.0,28.0,56,0.00,,,0.00,1201.000000,,2013-04-04 23:42:00,
2013-04-04 13:52:00,79.0,62.0,30.05,ENE,71,17.0,28.0,56,0.00,,,0.00,1201.000000,,2013-04-04 23:52:00,
2013-04-04 14:12:00,80.0,61.0,30.03,ENE,74,16.0,26.0,53,0.00,,,0.00,1176.000000,,2013-04-05 00:12:00,
2013-04-04 14:22:00,80.0,61.0,30.03,ENE,74,16.0,26.0,53,0.00,,,0.00,1176.000000,,2013-04-05 00:22:00,
2013-04-04 14:32:00,80.0,61.0,30.03,ENE,74,16.0,26.0,53,0.00,,,0.00,1176.000000,,2013-04-05 00:32:00,
2013-04-04 14:42:00,80.0,61.0,30.03,ENE,74,16.0,26.0,53,0.00,,,0.00,1176.000000,,2013-04-05 00:42:00,
2013-04-04 14:52:00,80.0,61.0,30.03,ENE,74,16.0,26.0,53,0.00,,,0.00,1176.000000,,2013-04-05 00:52:00,
2013-04-04 15:22:00,79.0,62.0,30.02,ENE,71,17.0,26.0,56,0.00,,,0.00,1140.000000,,2013-04-05 01:22:00,
2013-04-04 15:32:00,79.0,62.0,30.02,ENE,71,17.0,26.0,56,0.00,,,0.00,1140.000000,,2013-04-05 01:32:00,
2013-04-04 15:42:00,79.0,62.0,30.02,ENE,71,17.0,26.0,56,0.00,,,0.00,1140.000000,,2013-04-05 01:42:00,
2013-04-04 15:52:00,79.0,62.0,30.02,ENE,71,17.0,26.0,56,0.00,,,0.00,1140.000000,,2013-04-05 01:52:00,
2013-04-04 16:12:00,79.0,62.0,30.02,ENE,76,16.0,26.0,57,0.00,,,0.00,910.000000,,2013-04-05 02:12:00,
2013-04-04 16:22:00,79.0,62.0,30.02,ENE,76,16.0,26.0,57,0.00,,,0.00,910.000000,,2013-04-05 02:22:00,
2013-04-04 16:32:00,79.0,62.0,30.02,ENE,76,16.0,26.0,57,0.00,,,0.00,910.000000,,2013-04-05 02:32:00,
2013-04-04 16:42:00,79.0,62.0,30.02,ENE,76,16.0,26.0,57,0.00,,,0.00,910.000000,,2013-04-05 02:42:00,
2013-04-04 16:52:00,79.0,62.0,30.02,ENE,76,16.0,26.0,57,0.00,,,0.00,910.000000,,2013-04-05 02:52:00,
2013-04-04 16:53:00,79.0,63.0,30.02,ENE,76,16.0,26.0,58,0.00,,,0.00,613.000000,,2013-04-05 02:53:00,
2013-04-04 17:12:00,79.0,63.0,30.02,ENE,76,16.0,26.0,58,0.00,,,0.00,613.000000,,2013-04-05 03:12:00,
2013-04-04 17:22:00,79.0,63.0,30.02,ENE,76,16.0,26.0,58,0.00,,,0.00,613.000000,,2013-04-05 03:22:00,
2013-04-04 17:32:00,79.0,63.0,30.02,ENE,76,16.0,26.0,58,0.00,,,0.00,613.000000,,2013-04-05 03:32:00,
2013-04-04 17:43:00,79.0,63.0,30.02,ENE,76,16.0,26.0,58,0.00,,,0.00,613.000000,,2013-04-05 03:43:00,
2013-04-04 18:22:00,77.0,63.0,30.04,ENE,68,13.0,24.0,61,0.00,,,0.00,286.000000,,2013-04-05 04:22:00,
2013-04-04 18:32:00,77.0,63.0,30.04,ENE,68,13.0,24.0,61,0.00,,,0.00,286.000000,,2013-04-05 04:32:00,
2013-04-04 18:42:00,77.0,63.0,30.04,ENE,68,13.0,24.0,61,0.00,,,0.00,286.000000,,2013-04-05 04:42:00,
2013-04-04 18:52:00,77.0,63.0,30.04,ENE,68,13.0,24.0,61,0.00,,,0.00,286.000000,,2013-04-05 04:52:00,
2013-04-04 19:12:00,75.0,62.0,30.06,ENE,61,8.0,23.0,64,0.00,,,0.00,45.000000,,2013-04-05 05:12:00,
2013-04-04 19:22:00,75.0,62.0,30.06,ENE,61,8.0,23.0,64,0.00,,,0.00,45.000000,,2013-04-05 05:22:00,
2013-04-04 19:32:00,75.0,62.0,30.06,ENE,61,8.0,23.0,64,0.00,,,0.00,45.000000,,2013-04-05 05:32:00,
2013-04-04 19:42:00,75.0,62.0,30.06,ENE,61,8.0,23.0,64,0.00,,,0.00,45.000000,,2013-04-05 05:42:00,
2013-04-04 19:51:00,75.0,62.0,30.06,ENE,61,8.0,23.0,64,0.00,,,0.00,45.000000,,2013-04-05 05:51:00,
2013-04-04 20:22:00,73.0,61.0,30.07,NE,53,9.0,16.0,67,0.00,,,0.00,0.000000,,2013-04-05 06:22:00,
2013-04-04 20:32:00,73.0,61.0,30.07,NE,53,9.0,16.0,67,0.00,,,0.00,0.000000,,2013-04-05 06:32:00,
2013-04-04 20:42:00,73.0,61.0,30.07,NE,53,9.0,16.0,67,0.00,,,0.00,0.000000,,2013-04-05 06:42:00,
2013-04-04 20:52:00,73.0,61.0,30.07,NE,53,9.0,16.0,67,0.00,,,0.00,0.000000,,2013-04-05 06:52:00,
2013-04-04 21:22:00,73.0,62.0,30.09,NE,49,11.0,19.0,69,0.00,,,0.00,0.000000,,2013-04-05 07:22:00,
2013-04-04 21:32:00,73.0,62.0,30.09,NE,49,11.0,19.0,69,0.00,,,0.00,0.000000,,2013-04-05 07:32:00,
2013-04-04 21:42:00,73.0,62.0,30.09,NE,49,11.0,19.0,69,0.00,,,0.00,0.000000,,2013-04-05 07:42:00,
2013-04-04 21:52:00,73.0,62.0,30.09,NE,49,11.0,19.0,69,0.00,,,0.00,0.000000,,2013-04-05 07:52:00,
2013-04-04 22:22:00,74.0,64.0,30.11,NE,53,11.0,19.0,71,0.00,,,0.00,0.000000,,2013-04-05 08:22:00,
2013-04-04 22:32:00,74.0,64.0,30.11,NE,53,11.0,19.0,71,0.00,,,0.00,0.000000,,2013-04-05 08:32:00,
2013-04-04 22:42:00,74.0,64.0,30.11,NE,53,11.0,19.0,71,0.00,,,0.00,0.000000,,2013-04-05 08:42:00,
2013-04-04 22:52:00,74.0,64.0,30.11,NE,53,11.0,19.0,71,0.00,,,0.00,0.000000,,2013-04-05 08:52:00,
2013-04-04 23:22:00,72.0,62.0,30.10,ENE,58,11.0,23.0,71,0.00,,,0.00,0.000000,,2013-04-05 09:22:00,
2013-04-04 23:33:00,72.0,62.0,30.10,ENE,58,11.0,23.0,71,0.00,,,0.00,0.000000,,2013-04-05 09:33:00,
2013-04-04 23:42:00,72.0,62.0,30.10,ENE,58,11.0,23.0,71,0.00,,,0.00,0.000000,,2013-04-05 09:42:00,
2013-04-04 23:52:00,72.0,62.0,30.10,ENE,58,11.0,23.0,71,0.00,,,0.00,0.000000,,2013-04-05 09:52:00,